BAW188 ELLX-EGLL
Flight info
| Callsign | BAW188 |
|---|---|
| Flight time | 0h 57m |
| Altitude | 36000 |
| Route | LNO1P/06 LNO N852 TERLA L608 LOGAN |
| Aircraft | A319/M-SDE3FGHIRWY/LB1 |
Departure
| Time | 2026-05-04 14:51 |
|---|---|
| Airport | Luxembourg-Findel International Airport (ELLX) |
Arrival
| Time | 2026-05-04 15:49 |
|---|---|
| Airport | London Heathrow Airport (EGLL) |
| Time | Latitude | Longitude | Altitude | Speed | Heading |
|---|---|---|---|---|---|
| 2026-05-04 14:14 | 49.63236 | 6.21320 | 1240 ft | 0 kts | 60° |
| 2026-05-04 14:40 | 49.63236 | 6.21319 | 1240 ft | 0 kts | 60° |
| 2026-05-04 14:40 | 49.63229 | 6.21301 | 1240 ft | 2 kts | 60° |
| 2026-05-04 14:40 | 49.63221 | 6.21281 | 1240 ft | 2 kts | 60° |
| 2026-05-04 14:41 | 49.63214 | 6.21262 | 1241 ft | 1 kts | 69° |
| 2026-05-04 14:41 | 49.63215 | 6.21245 | 1242 ft | 1 kts | 131° |
| 2026-05-04 14:41 | 49.63225 | 6.21236 | 1242 ft | 0 kts | 151° |
| 2026-05-04 14:42 | 49.63224 | 6.21236 | 1242 ft | 0 kts | 151° |
| 2026-05-04 14:44 | 49.63219 | 6.21241 | 1242 ft | 2 kts | 151° |
| 2026-05-04 14:44 | 49.63190 | 6.21265 | 1240 ft | 6 kts | 151° |
| 2026-05-04 14:45 | 49.63135 | 6.21311 | 1237 ft | 11 kts | 151° |
| 2026-05-04 14:45 | 49.63055 | 6.21389 | 1231 ft | 15 kts | 153° |
| 2026-05-04 14:45 | 49.62974 | 6.21318 | 1230 ft | 14 kts | 244° |
| 2026-05-04 14:45 | 49.62939 | 6.21196 | 1234 ft | 11 kts | 246° |
| 2026-05-04 14:46 | 49.62909 | 6.21087 | 1235 ft | 10 kts | 246° |
| 2026-05-04 14:46 | 49.62877 | 6.20987 | 1236 ft | 10 kts | 244° |
| 2026-05-04 14:46 | 49.62844 | 6.20886 | 1236 ft | 10 kts | 243° |
| 2026-05-04 14:46 | 49.62811 | 6.20787 | 1235 ft | 11 kts | 237° |
| 2026-05-04 14:47 | 49.62752 | 6.20684 | 1232 ft | 13 kts | 219° |
| 2026-05-04 14:47 | 49.62670 | 6.20588 | 1229 ft | 15 kts | 221° |
| 2026-05-04 14:47 | 49.62590 | 6.20449 | 1225 ft | 18 kts | 229° |
| 2026-05-04 14:47 | 49.62505 | 6.20294 | 1220 ft | 19 kts | 233° |
| 2026-05-04 14:48 | 49.62432 | 6.20103 | 1213 ft | 22 kts | 240° |
| 2026-05-04 14:48 | 49.62348 | 6.19877 | 1203 ft | 25 kts | 239° |
| 2026-05-04 14:48 | 49.62255 | 6.19625 | 1190 ft | 28 kts | 240° |
| 2026-05-04 14:48 | 49.62148 | 6.19346 | 1175 ft | 31 kts | 242° |
| 2026-05-04 14:49 | 49.62038 | 6.19046 | 1163 ft | 32 kts | 240° |
| 2026-05-04 14:49 | 49.61903 | 6.18763 | 1151 ft | 33 kts | 217° |
| 2026-05-04 14:49 | 49.61865 | 6.18720 | 1149 ft | 0 kts | 206° |
| 2026-05-04 14:50 | 49.61841 | 6.18710 | 1148 ft | 6 kts | 183° |
| 2026-05-04 14:50 | 49.61791 | 6.18736 | 1148 ft | 8 kts | 141° |
| 2026-05-04 14:50 | 49.61778 | 6.18816 | 1151 ft | 7 kts | 69° |
| 2026-05-04 14:50 | 49.61809 | 6.18905 | 1154 ft | 25 kts | 61° |
| 2026-05-04 14:51 | 49.62017 | 6.19468 | 1178 ft | 92 kts | 59° |
| 2026-05-04 14:51 | 49.62429 | 6.20577 | 1223 ft | 146 kts | 60° |
| 2026-05-04 14:51 | 49.62963 | 6.22074 | 1596 ft | 162 kts | 64° |
| 2026-05-04 14:51 | 49.63507 | 6.23568 | 2192 ft | 163 kts | 63° |
| 2026-05-04 14:52 | 49.64089 | 6.25082 | 2782 ft | 167 kts | 63° |
| 2026-05-04 14:52 | 49.64683 | 6.26643 | 3194 ft | 177 kts | 63° |
| 2026-05-04 14:52 | 49.65326 | 6.28363 | 3527 ft | 193 kts | 64° |
| 2026-05-04 14:52 | 49.66019 | 6.30237 | 3879 ft | 210 kts | 63° |
| 2026-05-04 14:53 | 49.66765 | 6.32263 | 4244 ft | 227 kts | 63° |
| 2026-05-04 14:53 | 49.67585 | 6.34499 | 4557 ft | 250 kts | 63° |
| 2026-05-04 14:53 | 49.68555 | 6.36857 | 5013 ft | 271 kts | 49° |
| 2026-05-04 14:53 | 49.70209 | 6.38425 | 5571 ft | 289 kts | 13° |
| 2026-05-04 14:54 | 49.72187 | 6.38343 | 6353 ft | 291 kts | 342° |
| 2026-05-04 14:54 | 49.74098 | 6.37264 | 7104 ft | 297 kts | 335° |
| 2026-05-04 14:54 | 49.76014 | 6.36017 | 7887 ft | 303 kts | 334° |
| 2026-05-04 14:54 | 49.77947 | 6.34787 | 8685 ft | 307 kts | 335° |
| 2026-05-04 14:55 | 49.79956 | 6.33567 | 9488 ft | 311 kts | 336° |
| 2026-05-04 14:55 | 49.81985 | 6.32377 | 10240 ft | 316 kts | 336° |
| 2026-05-04 14:55 | 49.84043 | 6.31187 | 10748 ft | 329 kts | 337° |
| 2026-05-04 14:55 | 49.86245 | 6.29922 | 11124 ft | 347 kts | 337° |
| 2026-05-04 14:56 | 49.88578 | 6.28582 | 11457 ft | 364 kts | 337° |
| 2026-05-04 14:56 | 49.90958 | 6.27064 | 11819 ft | 378 kts | 333° |
| 2026-05-04 14:56 | 49.93331 | 6.25254 | 12485 ft | 381 kts | 327° |
| 2026-05-04 14:56 | 49.95343 | 6.22636 | 13224 ft | 377 kts | 308° |
| 2026-05-04 14:57 | 49.96962 | 6.19489 | 13965 ft | 378 kts | 304° |
| 2026-05-04 14:57 | 49.98544 | 6.16208 | 14607 ft | 381 kts | 304° |
| 2026-05-04 14:57 | 50.00136 | 6.12954 | 15239 ft | 385 kts | 305° |
| 2026-05-04 14:57 | 50.01772 | 6.09682 | 15871 ft | 388 kts | 306° |
| 2026-05-04 14:58 | 50.03454 | 6.06379 | 16484 ft | 390 kts | 306° |
| 2026-05-04 14:58 | 50.05146 | 6.03091 | 17072 ft | 393 kts | 306° |
| 2026-05-04 14:58 | 50.06858 | 5.99782 | 17629 ft | 397 kts | 307° |
| 2026-05-04 14:58 | 50.08589 | 5.96448 | 18207 ft | 399 kts | 307° |
| 2026-05-04 14:59 | 50.10334 | 5.93089 | 18763 ft | 402 kts | 307° |
| 2026-05-04 14:59 | 50.12117 | 5.89677 | 19300 ft | 405 kts | 306° |
| 2026-05-04 14:59 | 50.15691 | 5.82841 | 20358 ft | 410 kts | 306° |
| 2026-05-04 15:00 | 50.17500 | 5.79362 | 20843 ft | 413 kts | 306° |
| 2026-05-04 15:00 | 50.19294 | 5.75900 | 21348 ft | 415 kts | 306° |
| 2026-05-04 15:00 | 50.21101 | 5.72406 | 21844 ft | 417 kts | 306° |
| 2026-05-04 15:01 | 50.24774 | 5.65287 | 22734 ft | 423 kts | 306° |
| 2026-05-04 15:01 | 50.26597 | 5.61744 | 23167 ft | 426 kts | 306° |
| 2026-05-04 15:01 | 50.28462 | 5.58117 | 23599 ft | 428 kts | 306° |
| 2026-05-04 15:01 | 50.30336 | 5.54469 | 24039 ft | 431 kts | 306° |
| 2026-05-04 15:02 | 50.32193 | 5.50844 | 24460 ft | 433 kts | 306° |
| 2026-05-04 15:02 | 50.34088 | 5.47144 | 24874 ft | 436 kts | 305° |
| 2026-05-04 15:02 | 50.35980 | 5.43443 | 25277 ft | 439 kts | 305° |
| 2026-05-04 15:02 | 50.37879 | 5.39724 | 25668 ft | 441 kts | 305° |
| 2026-05-04 15:03 | 50.39790 | 5.35974 | 26031 ft | 444 kts | 305° |
| 2026-05-04 15:03 | 50.41718 | 5.32183 | 26407 ft | 447 kts | 304° |
| 2026-05-04 15:03 | 50.43653 | 5.28355 | 26806 ft | 449 kts | 304° |
| 2026-05-04 15:03 | 50.45586 | 5.24529 | 27164 ft | 452 kts | 304° |
| 2026-05-04 15:04 | 50.47562 | 5.20624 | 27514 ft | 455 kts | 304° |
| 2026-05-04 15:04 | 50.49529 | 5.16729 | 27856 ft | 458 kts | 304° |
| 2026-05-04 15:04 | 50.51491 | 5.12824 | 28208 ft | 460 kts | 304° |
| 2026-05-04 15:04 | 50.53474 | 5.08898 | 28646 ft | 459 kts | 304° |
| 2026-05-04 15:05 | 50.55441 | 5.05001 | 29132 ft | 458 kts | 304° |
| 2026-05-04 15:05 | 50.57406 | 5.01098 | 29575 ft | 457 kts | 304° |
| 2026-05-04 15:05 | 50.59392 | 4.97143 | 30012 ft | 457 kts | 303° |
| 2026-05-04 15:05 | 50.61355 | 4.93234 | 30446 ft | 456 kts | 303° |
| 2026-05-04 15:06 | 50.63295 | 4.89357 | 30765 ft | 458 kts | 303° |
| 2026-05-04 15:06 | 50.65277 | 4.85387 | 31065 ft | 460 kts | 303° |
| 2026-05-04 15:06 | 50.67236 | 4.81459 | 31388 ft | 461 kts | 303° |
| 2026-05-04 15:07 | 50.71177 | 4.73542 | 31934 ft | 463 kts | 303° |
| 2026-05-04 15:07 | 50.75142 | 4.65552 | 31952 ft | 464 kts | 304° |
| 2026-05-04 15:08 | 50.79100 | 4.57552 | 31949 ft | 464 kts | 304° |
| 2026-05-04 15:08 | 50.83065 | 4.49517 | 31941 ft | 464 kts | 304° |
| 2026-05-04 15:09 | 50.87007 | 4.41503 | 31948 ft | 464 kts | 304° |
| 2026-05-04 15:09 | 50.90948 | 4.33466 | 31946 ft | 463 kts | 303° |
| 2026-05-04 15:10 | 50.96827 | 4.21392 | 31949 ft | 463 kts | 304° |
| 2026-05-04 15:11 | 51.02710 | 4.09280 | 31946 ft | 463 kts | 304° |
| 2026-05-04 15:11 | 51.06612 | 4.01221 | 31950 ft | 463 kts | 304° |
| 2026-05-04 15:12 | 51.10533 | 3.93104 | 31943 ft | 462 kts | 304° |
| 2026-05-04 15:12 | 51.14436 | 3.85052 | 31942 ft | 462 kts | 304° |
| 2026-05-04 15:13 | 51.18323 | 3.76963 | 31941 ft | 462 kts | 304° |
| 2026-05-04 15:13 | 51.22039 | 3.68667 | 31947 ft | 459 kts | 298° |
| 2026-05-04 15:14 | 51.25118 | 3.59846 | 31944 ft | 455 kts | 292° |
| 2026-05-04 15:14 | 51.27635 | 3.50579 | 31954 ft | 454 kts | 289° |
| 2026-05-04 15:15 | 51.30014 | 3.41331 | 31953 ft | 454 kts | 289° |
| 2026-05-04 15:15 | 51.32412 | 3.32001 | 31957 ft | 454 kts | 288° |
| 2026-05-04 15:16 | 51.35984 | 3.18049 | 31965 ft | 454 kts | 288° |
| 2026-05-04 15:17 | 51.39542 | 3.04104 | 31966 ft | 453 kts | 288° |
| 2026-05-04 15:17 | 51.43084 | 2.90148 | 31968 ft | 452 kts | 288° |
| 2026-05-04 15:18 | 51.45436 | 2.80836 | 31968 ft | 452 kts | 288° |
| 2026-05-04 15:19 | 51.48949 | 2.66844 | 31970 ft | 453 kts | 288° |
| 2026-05-04 15:19 | 51.52454 | 2.52803 | 31972 ft | 453 kts | 289° |
| 2026-05-04 15:20 | 51.54770 | 2.43476 | 31973 ft | 453 kts | 288° |
| 2026-05-04 15:20 | 51.57087 | 2.34100 | 31974 ft | 452 kts | 288° |
| 2026-05-04 15:21 | 51.58234 | 2.29433 | 31565 ft | 454 kts | 288° |
| 2026-05-04 15:21 | 51.59394 | 2.24703 | 30767 ft | 456 kts | 288° |
| 2026-05-04 15:21 | 51.61723 | 2.15169 | 28758 ft | 462 kts | 288° |
| 2026-05-04 15:22 | 51.62889 | 2.10397 | 27937 ft | 460 kts | 289° |
| 2026-05-04 15:22 | 51.64051 | 2.05648 | 27119 ft | 458 kts | 289° |
| 2026-05-04 15:22 | 51.66335 | 1.96270 | 25524 ft | 439 kts | 289° |
| 2026-05-04 15:23 | 51.67420 | 1.91805 | 25102 ft | 425 kts | 289° |
| 2026-05-04 15:23 | 51.68462 | 1.87506 | 24993 ft | 399 kts | 289° |
| 2026-05-04 15:23 | 51.69432 | 1.83510 | 24981 ft | 366 kts | 288° |
| 2026-05-04 15:23 | 51.70313 | 1.79858 | 24989 ft | 342 kts | 288° |
| 2026-05-04 15:24 | 51.71944 | 1.73048 | 24975 ft | 311 kts | 288° |
| 2026-05-04 15:24 | 51.73456 | 1.66705 | 24983 ft | 301 kts | 288° |
| 2026-05-04 15:25 | 51.74154 | 1.63573 | 24937 ft | 298 kts | 282° |
| 2026-05-04 15:25 | 51.74534 | 1.60299 | 24511 ft | 296 kts | 272° |
| 2026-05-04 15:25 | 51.74520 | 1.57010 | 24026 ft | 295 kts | 264° |
| 2026-05-04 15:26 | 51.74099 | 1.50489 | 23278 ft | 292 kts | 263° |
| 2026-05-04 15:26 | 51.73882 | 1.47241 | 22884 ft | 291 kts | 263° |
| 2026-05-04 15:26 | 51.73455 | 1.40802 | 22114 ft | 289 kts | 263° |
| 2026-05-04 15:27 | 51.73244 | 1.37598 | 21693 ft | 288 kts | 263° |
| 2026-05-04 15:27 | 51.72821 | 1.31146 | 20535 ft | 291 kts | 262° |
| 2026-05-04 15:28 | 51.72396 | 1.24692 | 19501 ft | 290 kts | 263° |
| 2026-05-04 15:28 | 51.72183 | 1.21502 | 19050 ft | 288 kts | 263° |
| 2026-05-04 15:28 | 51.71759 | 1.15174 | 18315 ft | 283 kts | 263° |
| 2026-05-04 15:29 | 51.71546 | 1.11999 | 17952 ft | 283 kts | 263° |
| 2026-05-04 15:30 | 51.70677 | 0.99221 | 16471 ft | 285 kts | 263° |
| 2026-05-04 15:30 | 51.70010 | 0.89592 | 15062 ft | 301 kts | 264° |
| 2026-05-04 15:31 | 51.69532 | 0.82732 | 13925 ft | 314 kts | 264° |
| 2026-05-04 15:31 | 51.69291 | 0.79302 | 13585 ft | 311 kts | 264° |
| 2026-05-04 15:32 | 51.68570 | 0.69095 | 12771 ft | 298 kts | 264° |
| 2026-05-04 15:32 | 51.68102 | 0.62531 | 12129 ft | 295 kts | 264° |
| 2026-05-04 15:33 | 51.67633 | 0.56039 | 11356 ft | 290 kts | 264° |
| 2026-05-04 15:34 | 51.66941 | 0.46524 | 9897 ft | 283 kts | 263° |
| 2026-05-04 15:34 | 51.66713 | 0.43399 | 9425 ft | 281 kts | 263° |
| 2026-05-04 15:34 | 51.66251 | 0.37152 | 8495 ft | 281 kts | 264° |
| 2026-05-04 15:35 | 51.65790 | 0.30945 | 7779 ft | 281 kts | 263° |
| 2026-05-04 15:35 | 51.65556 | 0.27806 | 7433 ft | 280 kts | 263° |
| 2026-05-04 15:35 | 51.65324 | 0.24714 | 7119 ft | 279 kts | 263° |
| 2026-05-04 15:36 | 51.64878 | 0.18741 | 6988 ft | 254 kts | 263° |
| 2026-05-04 15:36 | 51.64609 | 0.16035 | 6884 ft | 245 kts | 253° |
| 2026-05-04 15:36 | 51.63787 | 0.13609 | 6563 ft | 248 kts | 231° |
| 2026-05-04 15:37 | 51.62647 | 0.11538 | 6281 ft | 248 kts | 228° |
| 2026-05-04 15:37 | 51.61487 | 0.09531 | 5999 ft | 248 kts | 227° |
| 2026-05-04 15:37 | 51.60309 | 0.07491 | 5736 ft | 247 kts | 228° |
| 2026-05-04 15:37 | 51.59153 | 0.05473 | 5546 ft | 242 kts | 228° |
| 2026-05-04 15:38 | 51.58031 | 0.03504 | 5310 ft | 238 kts | 228° |
| 2026-05-04 15:38 | 51.56915 | 0.01536 | 5086 ft | 232 kts | 228° |
| 2026-05-04 15:38 | 51.55842 | -0.00359 | 4839 ft | 227 kts | 228° |
| 2026-05-04 15:38 | 51.54794 | -0.02212 | 4582 ft | 223 kts | 229° |
| 2026-05-04 15:39 | 51.53768 | -0.04024 | 4346 ft | 218 kts | 228° |
| 2026-05-04 15:39 | 51.52771 | -0.05785 | 4228 ft | 204 kts | 228° |
| 2026-05-04 15:39 | 51.50968 | -0.08971 | 3916 ft | 179 kts | 229° |
| 2026-05-04 15:40 | 51.50158 | -0.10403 | 3792 ft | 167 kts | 229° |
| 2026-05-04 15:40 | 51.49380 | -0.11775 | 3702 ft | 166 kts | 229° |
| 2026-05-04 15:40 | 51.48597 | -0.13157 | 3601 ft | 166 kts | 229° |
| 2026-05-04 15:40 | 51.47745 | -0.14371 | 3481 ft | 166 kts | 204° |
| 2026-05-04 15:41 | 51.46639 | -0.14875 | 3398 ft | 166 kts | 198° |
| 2026-05-04 15:41 | 51.45739 | -0.15928 | 3372 ft | 164 kts | 236° |
| 2026-05-04 15:41 | 51.45177 | -0.17521 | 3440 ft | 165 kts | 245° |
| 2026-05-04 15:41 | 51.44473 | -0.18981 | 3482 ft | 166 kts | 220° |
| 2026-05-04 15:42 | 51.43512 | -0.19986 | 3477 ft | 167 kts | 199° |
| 2026-05-04 15:42 | 51.42405 | -0.19939 | 3401 ft | 161 kts | 152° |
| 2026-05-04 15:42 | 51.41685 | -0.18655 | 3343 ft | 154 kts | 104° |
| 2026-05-04 15:42 | 51.41720 | -0.16999 | 3317 ft | 152 kts | 72° |
| 2026-05-04 15:43 | 51.42277 | -0.15603 | 3253 ft | 150 kts | 37° |
| 2026-05-04 15:43 | 51.43218 | -0.14910 | 3219 ft | 151 kts | 14° |
| 2026-05-04 15:43 | 51.44268 | -0.14653 | 3170 ft | 149 kts | 6° |
| 2026-05-04 15:43 | 51.45269 | -0.14851 | 3107 ft | 146 kts | 346° |
| 2026-05-04 15:44 | 51.46185 | -0.15577 | 3044 ft | 147 kts | 319° |
| 2026-05-04 15:44 | 51.46611 | -0.17051 | 2992 ft | 151 kts | 279° |
| 2026-05-04 15:44 | 51.46652 | -0.18740 | 2965 ft | 152 kts | 272° |
| 2026-05-04 15:44 | 51.46627 | -0.20392 | 2858 ft | 144 kts | 271° |
| 2026-05-04 15:45 | 51.46600 | -0.21963 | 2671 ft | 143 kts | 271° |
| 2026-05-04 15:45 | 51.46580 | -0.23555 | 2481 ft | 143 kts | 272° |
| 2026-05-04 15:45 | 51.46566 | -0.25158 | 2288 ft | 143 kts | 272° |
| 2026-05-04 15:45 | 51.46557 | -0.26749 | 2098 ft | 143 kts | 272° |
| 2026-05-04 15:46 | 51.46550 | -0.28330 | 1909 ft | 143 kts | 273° |
| 2026-05-04 15:46 | 51.46543 | -0.29921 | 1720 ft | 142 kts | 272° |
| 2026-05-04 15:46 | 51.46537 | -0.31473 | 1535 ft | 142 kts | 272° |
| 2026-05-04 15:46 | 51.46531 | -0.33018 | 1352 ft | 141 kts | 272° |
| 2026-05-04 15:47 | 51.46524 | -0.34584 | 1164 ft | 140 kts | 272° |
| 2026-05-04 15:47 | 51.46518 | -0.36155 | 975 ft | 140 kts | 272° |
| 2026-05-04 15:47 | 51.46513 | -0.37688 | 795 ft | 139 kts | 272° |
| 2026-05-04 15:47 | 51.46507 | -0.39232 | 613 ft | 138 kts | 273° |
| 2026-05-04 15:48 | 51.46505 | -0.40759 | 425 ft | 138 kts | 272° |
| 2026-05-04 15:48 | 51.46496 | -0.42304 | 273 ft | 138 kts | 272° |
| 2026-05-04 15:48 | 51.46499 | -0.45305 | 88 ft | 102 kts | 269° |
| 2026-05-04 15:49 | 51.46560 | -0.45906 | 82 ft | 5 kts | 9° |
| 2026-05-04 15:49 | 51.46563 | -0.45905 | 82 ft | 1 kts | 12° |
| 2026-05-04 15:49 | 51.46590 | -0.45905 | 82 ft | 5 kts | 335° |
| 2026-05-04 15:49 | 51.46629 | -0.45964 | 83 ft | 9 kts | 320° |
| 2026-05-04 15:50 | 51.46660 | -0.46074 | 84 ft | 13 kts | 269° |
| 2026-05-04 15:50 | 51.46659 | -0.46254 | 82 ft | 19 kts | 270° |